This is the latest recevied weather packets stored in our database for station/object KI6PPU. If no packets are shown the sender has not sent any weather packets the latest 10 day(s).
| Time | Temp. | Humidity | Pressure | Rain* | Wind** | Luminosity | Snow |
|---|---|---|---|---|---|---|---|
| 1777247435 | 13.89° C | 72% | 1015.3 hPa | 0 mm | - | 154 W/m² | - |
| 1777247132 | 13.89° C | 68% | 1015.3 hPa | 0 mm | - | 135 W/m² | - |
| 1777246829 | 13.89° C | 71% | 1015.4 hPa | 0 mm | - | 176 W/m² | - |
| 1777246525 | 13.89° C | 66% | 1015.3 hPa | 0 mm | - | 269 W/m² | - |
| 1777246222 | 13.89° C | 67% | 1015.3 hPa | 0 mm | - | 207 W/m² | - |
| 1777245920 | 13.89° C | 67% | 1015.2 hPa | 0 mm | - | 232 W/m² | - |
| 1777245618 | 13.89° C | 68% | 1015.3 hPa | 0 mm | - | 219 W/m² | - |
| 1777245315 | 14.44° C | 68% | 1015.5 hPa | 0 mm | - | 279 W/m² | - |
| 1777245010 | 14.44° C | 67% | 1015.5 hPa | 0 mm | - | 328 W/m² | - |
| 1777244705 | 13.89° C | 67% | 1015.4 hPa | 0 mm | - | 318 W/m² | - |
| 1777244402 | 13.89° C | 69% | 1015.4 hPa | 0 mm | - | 377 W/m² | - |
| 1777244099 | 13.89° C | 71% | 1015.4 hPa | 0 mm | - | 284 W/m² | - |
| 1777243797 | 13.89° C | 70% | 1015.5 hPa | 0 mm | - | 284 W/m² | - |
| 1777243494 | 14.44° C | 71% | 1015.5 hPa | 0 mm | - | 336 W/m² | - |
| 1777243189 | 13.89° C | 73% | 1015.4 hPa | 0 mm | - | 311 W/m² | - |
| 1777242885 | 13.33° C | 71% | 1015.4 hPa | 0 mm | - | 254 W/m² | - |
| 1777242583 | 13.33° C | 72% | 1015.4 hPa | 0 mm | - | 297 W/m² | - |
| 1777242278 | 13.33° C | 74% | 1015.5 hPa | 0 mm | - | 309 W/m² | - |
| 1777241976 | 13.33° C | 73% | 1015.7 hPa | 0 mm | - | 318 W/m² | - |
| 1777241673 | 12.78° C | 70% | 1015.7 hPa | 0 mm | - | 198 W/m² | - |
| 1777241370 | 13.33° C | 73% | 1015.6 hPa | 0 mm | - | 248 W/m² | - |
| 1777241068 | 12.78° C | 73% | 1015.7 hPa | 0 mm | - | 256 W/m² | - |
| 1777240765 | 12.78° C | 75% | 1015.6 hPa | 0 mm | - | 324 W/m² | - |
| 1777240463 | 12.78° C | 77% | 1015.8 hPa | 0 mm | - | 284 W/m² | - |
| 1777240160 | 12.78° C | 79% | 1015.6 hPa | 0 mm | - | 283 W/m² | - |
* Rain latest hour (hover to see other rain measurements)
** Current wind speed in m/s (hover to see current wind gust speed)